createdAt,value
2017-07-18T00:01:16.363Z,82.60
2017-07-18T00:03:44.678Z,82.70
2017-07-18T00:08:42.855Z,82.60
2017-07-18T00:11:11.222Z,83.10
2017-07-18T00:13:39.498Z,83.30
2017-07-18T00:16:07.780Z,84.00
2017-07-18T00:18:36.133Z,84.40
2017-07-18T00:21:05.543Z,84.00
2017-07-18T00:23:33.820Z,84.60
2017-07-18T00:26:02.187Z,84.70
2017-07-18T00:28:30.865Z,84.90
2017-07-18T00:31:00.262Z,84.40
2017-07-18T00:35:58.863Z,84.40
2017-07-18T00:38:27.135Z,84.70
2017-07-18T00:40:56.223Z,84.00
2017-07-18T00:43:24.510Z,84.70
2017-07-18T00:45:54.299Z,83.90
2017-07-18T00:50:52.563Z,85.70
2017-07-18T00:53:20.849Z,85.20
2017-07-18T00:58:19.122Z,85.50
2017-07-18T01:03:17.519Z,86.30
2017-07-18T01:08:15.699Z,86.50
2017-07-18T01:10:44.047Z,85.80
2017-07-18T01:13:12.323Z,85.20
2017-07-18T01:18:10.911Z,86.50
2017-07-18T01:23:10.182Z,87.20
2017-07-18T01:25:38.522Z,86.60
2017-07-18T01:28:08.311Z,86.70
2017-07-18T01:30:36.596Z,87.10
2017-07-18T01:33:05.895Z,87.10
2017-07-18T01:35:34.563Z,87.20
2017-07-18T01:38:03.609Z,87.20
2017-07-18T01:40:33.075Z,86.80
2017-07-18T01:43:01.354Z,87.50
2017-07-18T01:45:29.627Z,87.00
2017-07-18T01:47:59.455Z,86.60
2017-07-18T01:50:27.727Z,86.80
2017-07-18T01:52:56.394Z,87.00
2017-07-18T01:55:24.710Z,86.70
2017-07-18T01:57:54.510Z,86.50
2017-07-18T02:00:23.559Z,87.20
2017-07-18T02:02:51.921Z,87.40
2017-07-18T02:05:20.212Z,87.00
2017-07-18T02:07:48.500Z,87.00
2017-07-18T02:10:16.838Z,87.50
2017-07-18T02:12:45.112Z,88.00
2017-07-18T02:15:14.521Z,87.50
2017-07-18T02:17:42.850Z,87.80
2017-07-18T02:20:11.523Z,87.50
2017-07-18T02:22:39.813Z,88.50
2017-07-18T02:27:37.651Z,88.10
2017-07-18T02:30:05.930Z,87.40
2017-07-18T02:32:35.763Z,87.60
2017-07-18T02:37:34.295Z,88.00
2017-07-18T02:40:02.611Z,88.40
2017-07-18T02:42:31.653Z,88.60
2017-07-18T02:45:00.691Z,88.40
2017-07-18T02:47:29.035Z,88.80
2017-07-18T02:52:26.799Z,89.50
2017-07-18T02:54:56.270Z,89.50
2017-07-18T02:57:24.547Z,89.60
2017-07-18T02:59:52.832Z,90.30
2017-07-18T03:04:50.696Z,90.00
2017-07-18T03:07:18.982Z,90.10
2017-07-18T03:12:17.578Z,90.10
2017-07-18T03:14:45.860Z,90.20
2017-07-18T03:17:14.228Z,90.20
2017-07-18T03:19:43.262Z,90.30
2017-07-18T03:22:12.299Z,90.00
2017-07-18T03:24:40.632Z,90.10
2017-07-18T03:27:09.671Z,90.30
2017-07-18T03:29:37.975Z,90.30
2017-07-18T03:32:06.313Z,90.40
2017-07-18T03:34:36.097Z,90.30
2017-07-18T03:39:34.337Z,90.10
2017-07-18T03:42:02.619Z,90.30
2017-07-18T03:46:54.607Z,90.40
2017-07-18T03:49:22.888Z,90.50
2017-07-18T03:51:51.191Z,90.70
2017-07-18T03:54:19.540Z,90.70
2017-07-18T03:59:17.754Z,90.70
2017-07-18T04:01:46.102Z,90.90
2017-07-18T04:04:14.362Z,90.90
2017-07-18T04:06:43.395Z,91.20
2017-07-18T04:09:12.883Z,91.20
2017-07-18T04:11:41.547Z,91.40
2017-07-18T04:16:40.135Z,91.00
2017-07-18T04:19:09.910Z,91.00
2017-07-18T04:21:38.190Z,91.30
2017-07-18T04:24:07.292Z,91.40
2017-07-18T04:26:36.327Z,90.90
2017-07-18T04:29:05.370Z,91.30
2017-07-18T04:34:03.580Z,91.60
2017-07-18T04:36:33.360Z,91.10
2017-07-18T04:41:31.631Z,91.20
2017-07-18T04:44:01.044Z,91.30
2017-07-18T04:46:29.375Z,91.20
2017-07-18T04:51:27.900Z,91.10
2017-07-18T04:53:56.219Z,91.30
2017-07-18T04:56:25.631Z,91.10
2017-07-18T04:58:53.916Z,91.00
2017-07-18T05:01:22.271Z,90.60
2017-07-18T05:03:52.072Z,90.20
2017-07-18T05:06:20.375Z,90.20
2017-07-18T05:08:48.713Z,89.40
2017-07-18T05:11:16.986Z,89.20
2017-07-18T05:13:45.261Z,90.00
2017-07-18T05:16:13.604Z,89.60
2017-07-18T05:18:43.388Z,89.40
2017-07-18T05:21:11.668Z,87.70
2017-07-18T05:23:40.010Z,88.30
2017-07-18T05:26:09.051Z,87.40
2017-07-18T05:28:38.105Z,87.30
2017-07-18T05:33:37.556Z,87.40
2017-07-18T05:36:07.357Z,85.20
2017-07-18T05:38:35.688Z,85.50
2017-07-18T05:41:04.363Z,86.30
2017-07-18T05:43:32.634Z,84.90
2017-07-18T05:46:02.083Z,85.00
2017-07-18T05:48:31.132Z,85.40
2017-07-18T05:51:00.163Z,85.20
2017-07-18T05:53:28.497Z,82.40
2017-07-18T05:55:56.770Z,83.20
2017-07-18T05:58:25.812Z,83.40
2017-07-18T06:00:55.287Z,83.40
2017-07-18T06:03:23.570Z,82.00
2017-07-18T06:05:51.888Z,82.50
2017-07-18T06:08:20.227Z,81.20
2017-07-18T06:10:48.903Z,80.70
2017-07-18T06:15:47.151Z,79.10
2017-07-18T06:20:45.317Z,79.00
2017-07-18T06:23:14.403Z,80.70
2017-07-18T06:25:43.815Z,78.50
2017-07-18T06:28:12.488Z,76.40
2017-07-18T06:30:40.812Z,76.70
2017-07-18T06:33:09.086Z,76.10
2017-07-18T06:35:38.508Z,76.10
2017-07-18T06:38:06.844Z,76.00
2017-07-18T06:43:05.013Z,74.10
2017-07-18T06:45:33.327Z,73.60
2017-07-18T06:48:01.599Z,72.80
2017-07-18T06:50:29.888Z,72.10
2017-07-18T06:52:58.979Z,71.10
2017-07-18T06:55:27.259Z,70.30
2017-07-18T06:57:55.540Z,69.40
2017-07-18T07:00:23.922Z,68.10
2017-07-18T07:02:53.365Z,68.20
2017-07-18T07:05:22.042Z,66.20
2017-07-18T07:07:50.637Z,64.30
2017-07-18T07:10:20.064Z,62.40
2017-07-18T07:12:49.113Z,64.40
2017-07-18T07:15:18.230Z,62.80
2017-07-18T07:17:46.514Z,60.30
2017-07-18T07:20:15.192Z,61.10
2017-07-18T07:22:43.518Z,59.50
2017-07-18T07:25:12.928Z,57.90
2017-07-18T07:27:41.203Z,58.10
2017-07-18T07:30:09.536Z,57.60
2017-07-18T07:32:38.575Z,58.30
2017-07-18T07:35:06.883Z,58.10
2017-07-18T07:42:35.304Z,56.00
2017-07-18T07:45:03.631Z,54.60
2017-07-18T07:47:33.411Z,54.80
2017-07-18T07:50:01.691Z,55.10
2017-07-18T07:52:30.783Z,56.10
2017-07-18T07:54:59.831Z,54.40
2017-07-18T07:57:28.107Z,54.70
2017-07-18T07:59:56.441Z,55.50
2017-07-18T08:02:24.740Z,54.70
2017-07-18T08:07:23.028Z,54.70
2017-07-18T08:09:51.320Z,54.60
2017-07-18T08:12:19.606Z,55.60
2017-07-18T08:17:17.851Z,55.20
2017-07-18T08:19:46.904Z,54.10
2017-07-18T08:22:15.238Z,54.20
2017-07-18T08:24:43.512Z,50.60
2017-07-18T08:27:11.808Z,50.90
2017-07-18T08:29:40.138Z,50.90
2017-07-18T08:32:08.419Z,50.90
2017-07-18T08:34:37.460Z,49.70
2017-07-18T08:37:06.567Z,50.30
2017-07-18T08:39:35.983Z,50.50
2017-07-18T08:42:04.262Z,49.10
2017-07-18T08:44:32.587Z,48.50
2017-07-18T08:47:00.867Z,50.30
2017-07-18T08:49:29.141Z,49.50
2017-07-18T08:54:27.403Z,49.40
2017-07-18T08:56:56.470Z,48.10
2017-07-18T08:59:24.827Z,47.60
2017-07-18T09:01:54.646Z,47.10
2017-07-18T09:04:22.935Z,48.20
2017-07-18T09:06:51.276Z,47.90
2017-07-18T09:09:19.572Z,44.80
2017-07-18T09:11:49.009Z,46.50
2017-07-18T09:14:17.331Z,43.90
2017-07-18T09:16:45.608Z,44.30
2017-07-18T09:19:13.886Z,45.20
2017-07-18T09:21:42.243Z,46.90
2017-07-18T09:24:10.515Z,45.10
2017-07-18T09:26:38.798Z,45.10
2017-07-18T09:29:08.635Z,42.80
2017-07-18T09:31:36.918Z,44.20
2017-07-18T09:36:35.499Z,41.80
2017-07-18T09:39:04.568Z,39.90
2017-07-18T09:41:34.346Z,39.10
2017-07-18T09:49:02.808Z,40.40
2017-07-18T09:51:31.537Z,38.50
2017-07-18T09:53:59.819Z,39.10
2017-07-18T09:56:28.107Z,40.30
2017-07-18T09:58:57.252Z,39.60
2017-07-18T10:01:25.526Z,41.70
2017-07-18T10:03:54.576Z,41.40
2017-07-18T10:06:24.455Z,38.20
2017-07-18T10:08:52.746Z,39.40
2017-07-18T10:11:22.558Z,36.90
2017-07-18T10:13:50.908Z,36.40
2017-07-18T10:18:49.114Z,38.90
2017-07-18T10:21:18.226Z,39.00
2017-07-18T10:23:46.497Z,37.10
2017-07-18T10:28:44.733Z,36.30
2017-07-18T10:31:13.014Z,35.50
2017-07-18T10:33:41.286Z,39.00
2017-07-18T10:36:09.640Z,37.00
2017-07-18T10:38:37.918Z,36.10
2017-07-18T10:41:07.343Z,36.30
2017-07-18T10:46:05.590Z,37.10
2017-07-18T10:51:04.168Z,39.80
2017-07-18T10:56:02.715Z,39.10
2017-07-18T11:01:02.063Z,35.20
2017-07-18T11:06:00.303Z,34.60
2017-07-18T11:08:28.579Z,35.10
2017-07-18T11:10:56.854Z,36.00
2017-07-18T11:13:26.051Z,35.70
2017-07-18T11:15:54.731Z,35.50
2017-07-18T11:18:23.022Z,37.40
2017-07-18T11:20:52.889Z,38.50
2017-07-18T11:23:21.952Z,37.50
2017-07-18T11:25:50.247Z,36.00
2017-07-18T11:28:18.586Z,34.80
2017-07-18T11:30:48.397Z,37.80
2017-07-18T11:33:18.222Z,34.00
2017-07-18T11:38:16.478Z,35.10
2017-07-18T11:40:44.812Z,35.50
2017-07-18T11:43:13.886Z,35.60
2017-07-18T11:45:42.154Z,34.50
2017-07-18T11:48:10.455Z,33.40
2017-07-18T11:50:38.796Z,37.50
2017-07-18T11:53:07.072Z,35.60
2017-07-18T11:55:36.532Z,34.00
2017-07-18T11:58:04.851Z,35.90
2017-07-18T12:00:33.122Z,34.60
2017-07-18T12:03:01.429Z,34.00
2017-07-18T12:05:29.738Z,33.10
2017-07-18T12:07:58.014Z,32.90
2017-07-18T12:10:27.831Z,32.40
2017-07-18T12:12:56.139Z,34.30
2017-07-18T12:15:25.923Z,34.60
2017-07-18T12:17:55.367Z,33.80
2017-07-18T12:22:54.790Z,34.20
2017-07-18T12:25:23.883Z,33.90
2017-07-18T12:30:22.110Z,31.90
2017-07-18T12:32:50.446Z,31.80
2017-07-18T12:35:18.781Z,31.30
2017-07-18T12:37:47.054Z,31.40
2017-07-18T12:40:15.358Z,33.70
2017-07-18T12:42:44.828Z,32.50
2017-07-18T12:45:13.144Z,32.90
2017-07-18T12:47:41.463Z,32.00
2017-07-18T12:50:09.780Z,32.90
2017-07-18T12:52:38.059Z,32.20
2017-07-18T12:55:07.895Z,30.10
2017-07-18T12:57:36.207Z,31.90
2017-07-18T13:05:04.707Z,32.40
2017-07-18T13:12:32.039Z,32.00
2017-07-18T13:15:00.314Z,32.00
2017-07-18T13:17:29.580Z,33.00
2017-07-18T13:19:58.289Z,32.20
2017-07-18T13:22:27.326Z,30.50
2017-07-18T13:24:56.400Z,31.10
2017-07-18T13:27:24.707Z,32.70
2017-07-18T13:29:53.000Z,31.20
2017-07-18T13:34:51.633Z,30.70
2017-07-18T13:37:19.910Z,32.60
2017-07-18T13:39:48.227Z,33.60
2017-07-18T13:42:18.051Z,32.20
2017-07-18T13:44:46.323Z,33.90
2017-07-18T13:49:45.914Z,31.50
2017-07-18T13:52:15.699Z,33.20
2017-07-18T13:54:44.012Z,33.30
2017-07-18T13:59:42.212Z,33.10
2017-07-18T14:02:10.516Z,31.50
2017-07-18T14:04:38.840Z,32.50
2017-07-18T14:07:07.129Z,32.00
2017-07-18T14:09:35.426Z,30.70
2017-07-18T14:12:04.879Z,31.10
2017-07-18T14:14:33.154Z,35.20
2017-07-18T14:19:31.766Z,35.30
2017-07-18T14:22:00.043Z,33.60
2017-07-18T14:24:29.111Z,34.90
2017-07-18T14:26:57.431Z,35.60
2017-07-18T14:29:26.479Z,35.70
2017-07-18T14:31:55.555Z,35.40
2017-07-18T14:34:23.871Z,37.10
2017-07-18T14:36:52.167Z,36.80
2017-07-18T14:39:20.500Z,38.10
2017-07-18T14:41:49.964Z,38.80
2017-07-18T14:44:19.015Z,40.00
2017-07-18T14:46:48.083Z,40.40
2017-07-18T14:49:16.399Z,39.40
2017-07-18T14:51:45.442Z,40.20
2017-07-18T14:56:43.282Z,38.30
2017-07-18T14:59:11.551Z,38.20
2017-07-18T15:01:39.871Z,38.60
2017-07-18T15:04:09.711Z,39.40
2017-07-18T15:06:37.998Z,40.90
2017-07-18T15:09:06.306Z,40.60
2017-07-18T15:11:35.375Z,39.70
2017-07-18T15:19:03.849Z,41.10
2017-07-18T15:21:33.631Z,41.20
2017-07-18T15:24:01.946Z,42.00
2017-07-18T15:26:30.263Z,42.20
2017-07-18T15:29:00.038Z,41.30
2017-07-18T15:31:28.348Z,41.00
2017-07-18T15:33:56.656Z,41.20
2017-07-18T15:36:24.942Z,41.30
2017-07-18T15:38:53.259Z,41.80
2017-07-18T15:41:21.578Z,42.50
2017-07-18T15:43:49.864Z,44.10
2017-07-18T15:46:19.700Z,41.10
2017-07-18T15:48:48.029Z,41.40
2017-07-18T15:51:17.066Z,41.70
2017-07-18T15:56:15.315Z,42.70
2017-07-18T15:58:43.587Z,41.20
2017-07-18T16:01:11.895Z,42.00
2017-07-18T16:03:41.744Z,42.60
2017-07-18T16:06:10.015Z,42.20
2017-07-18T16:08:39.835Z,42.60
2017-07-18T16:11:08.155Z,42.90
2017-07-18T16:13:36.435Z,43.00
2017-07-18T16:16:04.740Z,42.40
2017-07-18T16:18:33.052Z,42.30
2017-07-18T16:21:01.325Z,42.80
2017-07-18T16:23:31.139Z,41.90
2017-07-18T16:25:59.450Z,42.70
2017-07-18T16:28:27.732Z,41.80
2017-07-18T16:30:56.808Z,42.30
2017-07-18T16:33:25.120Z,43.00
2017-07-18T16:38:23.352Z,43.50
2017-07-18T16:43:21.585Z,42.50
2017-07-18T16:45:49.935Z,42.70
2017-07-18T16:48:18.271Z,42.50
2017-07-18T16:50:47.680Z,42.70
2017-07-18T16:53:16.002Z,43.00
2017-07-18T16:55:44.705Z,43.50
2017-07-18T16:58:12.984Z,44.10
2017-07-18T17:00:41.333Z,43.60
2017-07-18T17:03:11.142Z,44.10
2017-07-18T17:05:39.428Z,44.20
2017-07-18T17:10:37.691Z,43.90
2017-07-18T17:13:06.730Z,43.30
2017-07-18T17:15:35.037Z,43.50
2017-07-18T17:18:04.857Z,43.60
2017-07-18T17:20:33.139Z,43.40
2017-07-18T17:23:02.574Z,43.80
2017-07-18T17:25:31.281Z,44.00
2017-07-18T17:27:59.565Z,43.70
2017-07-18T17:32:57.797Z,43.30
2017-07-18T17:35:26.106Z,43.50
2017-07-18T17:40:24.387Z,45.80
2017-07-18T17:42:52.675Z,44.20
2017-07-18T17:45:21.006Z,45.30
2017-07-18T17:50:19.551Z,45.30
2017-07-18T17:55:17.399Z,45.40
2017-07-18T17:57:46.078Z,45.10
2017-07-18T18:00:14.816Z,45.00
2017-07-18T18:02:43.098Z,45.40
2017-07-18T18:07:41.374Z,46.30
2017-07-18T18:10:09.660Z,45.80
2017-07-18T18:12:37.931Z,45.90
2017-07-18T18:15:06.276Z,45.70
2017-07-18T18:17:34.551Z,46.40
2017-07-18T18:22:32.399Z,47.10
2017-07-18T18:27:30.952Z,46.50
2017-07-18T18:29:59.296Z,46.40
2017-07-18T18:32:28.358Z,46.50
2017-07-18T18:37:26.627Z,47.60
2017-07-18T18:39:54.935Z,47.50
2017-07-18T18:42:23.225Z,47.00
2017-07-18T18:44:53.096Z,48.60
2017-07-18T18:47:21.381Z,47.30
2017-07-18T18:49:49.659Z,47.30
2017-07-18T18:52:17.991Z,47.90
2017-07-18T18:54:46.274Z,47.80
2017-07-18T18:57:15.558Z,48.00
2017-07-18T18:59:43.903Z,47.90
2017-07-18T19:02:12.186Z,48.00
2017-07-18T19:04:40.463Z,48.40
2017-07-18T19:09:38.687Z,48.80
2017-07-18T19:14:37.277Z,50.20
2017-07-18T19:19:36.554Z,47.90
2017-07-18T19:22:04.884Z,48.20
2017-07-18T19:24:33.172Z,48.70
2017-07-18T19:27:01.453Z,49.30
2017-07-18T19:29:30.933Z,49.60
2017-07-18T19:31:59.226Z,49.70
2017-07-18T19:36:57.454Z,50.20
2017-07-18T19:39:25.750Z,49.10
2017-07-18T19:41:55.555Z,49.30
2017-07-18T19:46:53.821Z,50.00
2017-07-18T19:49:22.498Z,49.90
2017-07-18T19:51:50.886Z,49.80
2017-07-18T19:54:19.930Z,50.60
2017-07-18T19:56:48.231Z,51.70
2017-07-18T19:59:17.359Z,51.40
2017-07-18T20:01:46.403Z,51.80
2017-07-18T20:04:14.692Z,52.60
2017-07-18T20:06:43.038Z,52.70
2017-07-18T20:09:11.336Z,51.80
2017-07-18T20:11:39.612Z,53.10
2017-07-18T20:16:37.835Z,51.30
2017-07-18T20:19:07.614Z,51.80
2017-07-18T20:21:37.467Z,52.30
2017-07-18T20:24:06.137Z,52.50
2017-07-18T20:26:34.416Z,52.30
2017-07-18T20:29:04.260Z,52.30
2017-07-18T20:31:32.530Z,52.30
2017-07-18T20:36:30.783Z,53.60
2017-07-18T20:38:59.081Z,52.80
2017-07-18T20:41:28.155Z,53.20
2017-07-18T20:43:56.585Z,53.60
2017-07-18T20:46:24.937Z,53.60
2017-07-18T20:48:54.813Z,53.80
2017-07-18T20:51:23.157Z,53.10
2017-07-18T20:53:51.446Z,54.00
2017-07-18T20:58:50.803Z,54.30
2017-07-18T21:01:19.088Z,54.00
2017-07-18T21:03:47.370Z,53.70
2017-07-18T21:06:15.700Z,54.60
2017-07-18T21:08:44.010Z,54.60
2017-07-18T21:11:12.296Z,55.40
2017-07-18T21:16:10.587Z,55.60
2017-07-18T21:18:38.874Z,54.80
2017-07-18T21:21:07.958Z,55.30
2017-07-18T21:23:36.231Z,55.40
2017-07-18T21:26:04.511Z,56.60
2017-07-18T21:28:34.359Z,55.00
2017-07-18T21:31:03.548Z,54.80
2017-07-18T21:33:32.599Z,55.40
2017-07-18T21:36:00.923Z,56.20
2017-07-18T21:38:29.198Z,56.00
2017-07-18T21:43:27.087Z,55.10
2017-07-18T21:45:55.422Z,55.60
2017-07-18T21:53:23.942Z,56.80
2017-07-18T21:55:52.235Z,56.00
2017-07-18T22:00:51.600Z,56.00
2017-07-18T22:03:19.980Z,55.70
2017-07-18T22:05:48.334Z,56.40
2017-07-18T22:10:46.117Z,56.70
2017-07-18T22:13:15.214Z,57.50
2017-07-18T22:15:44.271Z,57.20
2017-07-18T22:18:13.338Z,56.90
2017-07-18T22:20:42.802Z,56.50
2017-07-18T22:23:11.076Z,56.90
2017-07-18T22:25:39.354Z,57.00
2017-07-18T22:28:07.708Z,58.10
2017-07-18T22:30:35.979Z,57.50
2017-07-18T22:33:05.762Z,57.90
2017-07-18T22:35:34.102Z,58.60
2017-07-18T22:38:02.376Z,58.50
2017-07-18T22:43:01.538Z,59.10
2017-07-18T22:45:29.810Z,59.00
2017-07-18T22:50:28.056Z,59.80
2017-07-18T22:52:56.346Z,59.20
2017-07-18T22:57:55.000Z,60.30
2017-07-18T23:00:23.275Z,59.80
2017-07-18T23:02:52.339Z,60.40
2017-07-18T23:07:50.961Z,61.00
2017-07-18T23:12:49.559Z,63.30
2017-07-18T23:17:47.735Z,61.90
2017-07-18T23:20:16.089Z,63.30
2017-07-18T23:22:44.379Z,62.80
2017-07-18T23:25:12.697Z,63.80
2017-07-18T23:27:41.802Z,63.60
2017-07-18T23:30:11.600Z,63.70
2017-07-18T23:32:39.878Z,64.10
2017-07-18T23:35:08.219Z,65.20
2017-07-18T23:40:05.995Z,64.30
2017-07-18T23:42:34.339Z,65.40
2017-07-18T23:45:02.621Z,65.90
2017-07-18T23:47:30.906Z,64.70
2017-07-18T23:49:59.246Z,65.40
2017-07-18T23:52:27.530Z,66.40
2017-07-18T23:54:57.337Z,66.50
2017-07-18T23:59:55.969Z,66.60
